sensor_id;sensor_type;location;lat;lon;timestamp;temperature;humidity
56374;DHT22;58212;47.034;7.376;2023-04-19T00:00:19;9.30;99.90
56374;DHT22;58212;47.034;7.376;2023-04-19T00:02:46;9.30;99.90
56374;DHT22;58212;47.034;7.376;2023-04-19T00:05:15;9.10;99.90
56374;DHT22;58212;47.034;7.376;2023-04-19T00:07:44;9.10;99.90
56374;DHT22;58212;47.034;7.376;2023-04-19T00:10:11;9.10;99.90
56374;DHT22;58212;47.034;7.376;2023-04-19T00:12:40;9.00;99.90
56374;DHT22;58212;47.034;7.376;2023-04-19T00:15:07;8.80;99.90
56374;DHT22;58212;47.034;7.376;2023-04-19T00:17:34;8.80;99.90
56374;DHT22;58212;47.034;7.376;2023-04-19T00:20:03;8.80;99.90
56374;DHT22;58212;47.034;7.376;2023-04-19T00:22:31;8.90;99.90
56374;DHT22;58212;47.034;7.376;2023-04-19T00:25:03;9.10;99.90
56374;DHT22;58212;47.034;7.376;2023-04-19T00:27:30;9.00;99.90
56374;DHT22;58212;47.034;7.376;2023-04-19T00:29:58;9.00;99.90
56374;DHT22;58212;47.034;7.376;2023-04-19T00:32:25;9.00;99.90
56374;DHT22;58212;47.034;7.376;2023-04-19T00:34:52;9.00;99.90
56374;DHT22;58212;47.034;7.376;2023-04-19T00:37:20;9.00;99.90
56374;DHT22;58212;47.034;7.376;2023-04-19T00:39:49;9.00;99.90
56374;DHT22;58212;47.034;7.376;2023-04-19T00:42:17;9.00;99.90
56374;DHT22;58212;47.034;7.376;2023-04-19T00:44:45;8.90;99.90
56374;DHT22;58212;47.034;7.376;2023-04-19T00:47:38;8.90;99.90
56374;DHT22;58212;47.034;7.376;2023-04-19T00:50:07;9.10;99.90
56374;DHT22;58212;47.034;7.376;2023-04-19T00:52:35;9.00;99.90
56374;DHT22;58212;47.034;7.376;2023-04-19T00:55:04;8.90;99.90
56374;DHT22;58212;47.034;7.376;2023-04-19T00:57:36;8.70;99.90
56374;DHT22;58212;47.034;7.376;2023-04-19T01:00:04;8.90;99.90
56374;DHT22;58212;47.034;7.376;2023-04-19T01:03:04;8.90;99.90
56374;DHT22;58212;47.034;7.376;2023-04-19T01:05:52;8.90;99.90
56374;DHT22;58212;47.034;7.376;2023-04-19T01:08:22;9.00;99.90
56374;DHT22;58212;47.034;7.376;2023-04-19T01:10:52;9.00;99.90
56374;DHT22;58212;47.034;7.376;2023-04-19T01:13:24;9.10;99.90
56374;DHT22;58212;47.034;7.376;2023-04-19T01:15:53;9.10;99.90
56374;DHT22;58212;47.034;7.376;2023-04-19T01:18:21;9.00;99.90
56374;DHT22;58212;47.034;7.376;2023-04-19T01:20:50;8.90;99.90
56374;DHT22;58212;47.034;7.376;2023-04-19T01:23:18;8.90;99.90
56374;DHT22;58212;47.034;7.376;2023-04-19T01:25:48;8.80;99.90
56374;DHT22;58212;47.034;7.376;2023-04-19T01:28:15;8.70;99.90
56374;DHT22;58212;47.034;7.376;2023-04-19T01:30:48;8.70;99.90
56374;DHT22;58212;47.034;7.376;2023-04-19T01:33:43;9.00;99.90
56374;DHT22;58212;47.034;7.376;2023-04-19T01:36:36;8.90;99.90
56374;DHT22;58212;47.034;7.376;2023-04-19T01:39:30;8.80;99.90
56374;DHT22;58212;47.034;7.376;2023-04-19T01:42:01;8.90;99.90
56374;DHT22;58212;47.034;7.376;2023-04-19T01:44:29;8.90;99.90
56374;DHT22;58212;47.034;7.376;2023-04-19T01:46:56;9.00;99.90
56374;DHT22;58212;47.034;7.376;2023-04-19T01:49:23;9.10;99.90
56374;DHT22;58212;47.034;7.376;2023-04-19T01:51:50;9.00;99.90
56374;DHT22;58212;47.034;7.376;2023-04-19T01:54:19;9.00;99.90
56374;DHT22;58212;47.034;7.376;2023-04-19T01:56:50;9.10;99.90
56374;DHT22;58212;47.034;7.376;2023-04-19T01:59:42;9.00;99.90
56374;DHT22;58212;47.034;7.376;2023-04-19T02:02:11;9.10;99.90
56374;DHT22;58212;47.034;7.376;2023-04-19T02:04:38;9.10;99.90
56374;DHT22;58212;47.034;7.376;2023-04-19T02:07:05;9.10;99.90
56374;DHT22;58212;47.034;7.376;2023-04-19T02:09:36;9.10;99.90
56374;DHT22;58212;47.034;7.376;2023-04-19T02:12:31;9.20;99.90
56374;DHT22;58212;47.034;7.376;2023-04-19T02:15:02;9.30;99.90
56374;DHT22;58212;47.034;7.376;2023-04-19T02:17:54;9.40;99.90
56374;DHT22;58212;47.034;7.376;2023-04-19T02:20:21;9.40;99.90
56374;DHT22;58212;47.034;7.376;2023-04-19T02:22:49;9.40;99.90
56374;DHT22;58212;47.034;7.376;2023-04-19T02:25:16;9.40;99.90
56374;DHT22;58212;47.034;7.376;2023-04-19T02:27:46;9.40;99.90
56374;DHT22;58212;47.034;7.376;2023-04-19T02:30:13;9.50;99.90
56374;DHT22;58212;47.034;7.376;2023-04-19T02:32:40;9.40;99.90
56374;DHT22;58212;47.034;7.376;2023-04-19T02:35:08;9.40;99.90
56374;DHT22;58212;47.034;7.376;2023-04-19T02:37:35;9.40;99.90
56374;DHT22;58212;47.034;7.376;2023-04-19T02:40:04;9.40;99.90
56374;DHT22;58212;47.034;7.376;2023-04-19T02:42:31;9.40;99.90
56374;DHT22;58212;47.034;7.376;2023-04-19T02:44:59;9.40;99.90
56374;DHT22;58212;47.034;7.376;2023-04-19T02:47:27;9.30;99.90
56374;DHT22;58212;47.034;7.376;2023-04-19T02:49:54;9.40;99.90
56374;DHT22;58212;47.034;7.376;2023-04-19T02:52:21;9.30;99.90
56374;DHT22;58212;47.034;7.376;2023-04-19T02:54:48;9.40;99.90
56374;DHT22;58212;47.034;7.376;2023-04-19T02:57:16;9.40;99.90
56374;DHT22;58212;47.034;7.376;2023-04-19T02:59:44;9.40;99.90
56374;DHT22;58212;47.034;7.376;2023-04-19T03:02:16;9.40;99.90
56374;DHT22;58212;47.034;7.376;2023-04-19T03:04:44;9.50;99.90
56374;DHT22;58212;47.034;7.376;2023-04-19T03:07:14;9.40;99.90
56374;DHT22;58212;47.034;7.376;2023-04-19T03:09:40;9.50;99.90
56374;DHT22;58212;47.034;7.376;2023-04-19T03:12:08;9.50;99.90
56374;DHT22;58212;47.034;7.376;2023-04-19T03:14:35;9.40;99.90
56374;DHT22;58212;47.034;7.376;2023-04-19T03:17:03;9.30;99.90
56374;DHT22;58212;47.034;7.376;2023-04-19T03:19:33;9.10;99.90
56374;DHT22;58212;47.034;7.376;2023-04-19T03:22:00;9.30;99.90
56374;DHT22;58212;47.034;7.376;2023-04-19T03:24:30;9.50;99.90
56374;DHT22;58212;47.034;7.376;2023-04-19T03:27:04;9.30;99.90
56374;DHT22;58212;47.034;7.376;2023-04-19T03:29:34;9.20;99.90
56374;DHT22;58212;47.034;7.376;2023-04-19T03:32:06;9.20;99.90
56374;DHT22;58212;47.034;7.376;2023-04-19T03:34:34;9.30;99.90
56374;DHT22;58212;47.034;7.376;2023-04-19T03:37:06;9.40;99.90
56374;DHT22;58212;47.034;7.376;2023-04-19T03:39:33;9.40;99.90
56374;DHT22;58212;47.034;7.376;2023-04-19T03:42:03;9.40;99.90
56374;DHT22;58212;47.034;7.376;2023-04-19T03:44:52;9.40;99.90
56374;DHT22;58212;47.034;7.376;2023-04-19T03:47:21;9.30;99.90
56374;DHT22;58212;47.034;7.376;2023-04-19T03:49:53;9.40;99.90
56374;DHT22;58212;47.034;7.376;2023-04-19T03:52:21;9.40;99.90
56374;DHT22;58212;47.034;7.376;2023-04-19T03:54:50;9.30;99.90
56374;DHT22;58212;47.034;7.376;2023-04-19T03:57:37;9.40;99.90
56374;DHT22;58212;47.034;7.376;2023-04-19T04:00:17;9.50;99.90
56374;DHT22;58212;47.034;7.376;2023-04-19T04:02:50;9.40;99.90
56374;DHT22;58212;47.034;7.376;2023-04-19T04:05:22;9.50;99.90
56374;DHT22;58212;47.034;7.376;2023-04-19T04:07:52;9.50;99.90
56374;DHT22;58212;47.034;7.376;2023-04-19T04:10:21;9.50;99.90
56374;DHT22;58212;47.034;7.376;2023-04-19T04:12:48;9.30;99.90
56374;DHT22;58212;47.034;7.376;2023-04-19T04:15:22;9.30;99.90
56374;DHT22;58212;47.034;7.376;2023-04-19T04:17:52;9.40;99.90
56374;DHT22;58212;47.034;7.376;2023-04-19T04:20:21;9.50;99.90
56374;DHT22;58212;47.034;7.376;2023-04-19T04:22:52;9.50;99.90
56374;DHT22;58212;47.034;7.376;2023-04-19T04:25:20;9.30;99.90
56374;DHT22;58212;47.034;7.376;2023-04-19T04:27:51;9.20;99.90
56374;DHT22;58212;47.034;7.376;2023-04-19T04:30:22;9.30;99.90
56374;DHT22;58212;47.034;7.376;2023-04-19T04:32:51;9.40;99.90
56374;DHT22;58212;47.034;7.376;2023-04-19T04:35:18;9.30;99.90
56374;DHT22;58212;47.034;7.376;2023-04-19T04:37:53;9.40;99.90
56374;DHT22;58212;47.034;7.376;2023-04-19T04:40:22;9.40;99.90
56374;DHT22;58212;47.034;7.376;2023-04-19T04:42:49;9.50;99.90
56374;DHT22;58212;47.034;7.376;2023-04-19T04:45:18;9.40;99.90
56374;DHT22;58212;47.034;7.376;2023-04-19T04:47:48;9.30;99.90
56374;DHT22;58212;47.034;7.376;2023-04-19T04:50:17;9.50;99.90
56374;DHT22;58212;47.034;7.376;2023-04-19T04:52:46;9.40;99.90
56374;DHT22;58212;47.034;7.376;2023-04-19T04:55:23;9.60;99.90
56374;DHT22;58212;47.034;7.376;2023-04-19T04:57:50;9.50;99.90
56374;DHT22;58212;47.034;7.376;2023-04-19T05:00:42;9.50;99.90
56374;DHT22;58212;47.034;7.376;2023-04-19T05:03:10;9.60;99.90
56374;DHT22;58212;47.034;7.376;2023-04-19T05:05:48;9.60;99.90
56374;DHT22;58212;47.034;7.376;2023-04-19T05:08:16;9.60;99.90
56374;DHT22;58212;47.034;7.376;2023-04-19T05:10:45;9.50;99.90
56374;DHT22;58212;47.034;7.376;2023-04-19T05:13:13;9.40;99.90
56374;DHT22;58212;47.034;7.376;2023-04-19T05:15:40;9.50;99.90
56374;DHT22;58212;47.034;7.376;2023-04-19T05:18:08;9.50;99.90
56374;DHT22;58212;47.034;7.376;2023-04-19T05:20:35;9.60;99.90
56374;DHT22;58212;47.034;7.376;2023-04-19T05:23:11;9.50;99.90
56374;DHT22;58212;47.034;7.376;2023-04-19T05:25:40;9.40;99.90
56374;DHT22;58212;47.034;7.376;2023-04-19T05:28:09;9.50;99.90
56374;DHT22;58212;47.034;7.376;2023-04-19T05:30:45;9.50;99.90
56374;DHT22;58212;47.034;7.376;2023-04-19T05:33:13;9.50;99.90
56374;DHT22;58212;47.034;7.376;2023-04-19T05:35:43;9.70;99.90
56374;DHT22;58212;47.034;7.376;2023-04-19T05:38:11;9.80;99.90
56374;DHT22;58212;47.034;7.376;2023-04-19T05:40:38;9.70;99.90
56374;DHT22;58212;47.034;7.376;2023-04-19T05:43:05;9.80;99.90
56374;DHT22;58212;47.034;7.376;2023-04-19T05:45:33;9.50;99.90
56374;DHT22;58212;47.034;7.376;2023-04-19T05:48:01;9.40;99.90
56374;DHT22;58212;47.034;7.376;2023-04-19T05:50:47;9.50;99.90
56374;DHT22;58212;47.034;7.376;2023-04-19T05:53:29;9.50;99.90
56374;DHT22;58212;47.034;7.376;2023-04-19T05:55:56;9.60;99.90
56374;DHT22;58212;47.034;7.376;2023-04-19T05:58:24;9.70;99.90
56374;DHT22;58212;47.034;7.376;2023-04-19T06:00:54;9.70;99.90
56374;DHT22;58212;47.034;7.376;2023-04-19T06:03:22;9.80;99.90
56374;DHT22;58212;47.034;7.376;2023-04-19T06:05:50;10.00;99.90
56374;DHT22;58212;47.034;7.376;2023-04-19T06:08:17;9.90;99.90
56374;DHT22;58212;47.034;7.376;2023-04-19T06:10:44;9.90;99.90
56374;DHT22;58212;47.034;7.376;2023-04-19T06:13:14;10.00;99.90
56374;DHT22;58212;47.034;7.376;2023-04-19T06:15:41;10.00;99.90
56374;DHT22;58212;47.034;7.376;2023-04-19T06:18:35;10.00;99.90
56374;DHT22;58212;47.034;7.376;2023-04-19T06:21:02;10.00;99.90
56374;DHT22;58212;47.034;7.376;2023-04-19T06:23:30;10.00;99.90
56374;DHT22;58212;47.034;7.376;2023-04-19T06:25:58;9.90;99.90
56374;DHT22;58212;47.034;7.376;2023-04-19T06:28:25;10.00;99.90
56374;DHT22;58212;47.034;7.376;2023-04-19T06:31:18;10.00;99.90
56374;DHT22;58212;47.034;7.376;2023-04-19T06:33:48;10.20;99.90
56374;DHT22;58212;47.034;7.376;2023-04-19T06:36:17;10.10;99.90
56374;DHT22;58212;47.034;7.376;2023-04-19T06:38:44;10.00;99.90
56374;DHT22;58212;47.034;7.376;2023-04-19T06:41:11;10.00;99.90
56374;DHT22;58212;47.034;7.376;2023-04-19T06:43:39;10.00;99.90
56374;DHT22;58212;47.034;7.376;2023-04-19T06:46:07;10.20;99.90
56374;DHT22;58212;47.034;7.376;2023-04-19T06:48:37;10.10;99.90
56374;DHT22;58212;47.034;7.376;2023-04-19T06:51:05;10.30;99.90
56374;DHT22;58212;47.034;7.376;2023-04-19T06:53:34;10.30;99.90
56374;DHT22;58212;47.034;7.376;2023-04-19T06:56:03;10.10;99.90
56374;DHT22;58212;47.034;7.376;2023-04-19T06:58:31;10.20;99.90
56374;DHT22;58212;47.034;7.376;2023-04-19T07:01:24;10.20;99.90
56374;DHT22;58212;47.034;7.376;2023-04-19T07:03:51;10.30;99.90
56374;DHT22;58212;47.034;7.376;2023-04-19T07:06:22;10.10;99.90
56374;DHT22;58212;47.034;7.376;2023-04-19T07:08:51;10.20;99.90
56374;DHT22;58212;47.034;7.376;2023-04-19T07:11:18;10.20;99.90
56374;DHT22;58212;47.034;7.376;2023-04-19T07:13:45;10.30;99.90
56374;DHT22;58212;47.034;7.376;2023-04-19T07:16:12;10.40;99.90
56374;DHT22;58212;47.034;7.376;2023-04-19T07:18:40;10.30;99.90
56374;DHT22;58212;47.034;7.376;2023-04-19T07:21:07;10.50;99.90
56374;DHT22;58212;47.034;7.376;2023-04-19T07:23:36;10.60;99.90
56374;DHT22;58212;47.034;7.376;2023-04-19T07:26:03;10.30;99.90
56374;DHT22;58212;47.034;7.376;2023-04-19T07:28:31;10.00;99.90
56374;DHT22;58212;47.034;7.376;2023-04-19T07:30:59;9.90;99.90
56374;DHT22;58212;47.034;7.376;2023-04-19T07:33:26;10.20;99.90
56374;DHT22;58212;47.034;7.376;2023-04-19T07:35:54;10.20;99.90
56374;DHT22;58212;47.034;7.376;2023-04-19T07:38:47;10.50;99.90
56374;DHT22;58212;47.034;7.376;2023-04-19T07:41:16;10.50;99.90
56374;DHT22;58212;47.034;7.376;2023-04-19T07:43:44;10.50;99.90
56374;DHT22;58212;47.034;7.376;2023-04-19T07:46:13;10.60;99.90
56374;DHT22;58212;47.034;7.376;2023-04-19T07:48:41;10.80;99.90
56374;DHT22;58212;47.034;7.376;2023-04-19T07:51:09;10.90;99.90
56374;DHT22;58212;47.034;7.376;2023-04-19T07:53:40;10.80;99.90
56374;DHT22;58212;47.034;7.376;2023-04-19T07:56:10;11.00;99.90
56374;DHT22;58212;47.034;7.376;2023-04-19T07:58:37;11.10;99.90
56374;DHT22;58212;47.034;7.376;2023-04-19T08:01:07;11.10;99.90
56374;DHT22;58212;47.034;7.376;2023-04-19T08:03:34;11.20;99.90
56374;DHT22;58212;47.034;7.376;2023-04-19T08:06:03;11.00;99.90
56374;DHT22;58212;47.034;7.376;2023-04-19T08:08:56;11.10;99.90
56374;DHT22;58212;47.034;7.376;2023-04-19T08:11:25;11.10;99.90
56374;DHT22;58212;47.034;7.376;2023-04-19T08:13:52;11.30;99.90
56374;DHT22;58212;47.034;7.376;2023-04-19T08:16:23;11.20;99.90
56374;DHT22;58212;47.034;7.376;2023-04-19T08:18:50;11.10;99.90
56374;DHT22;58212;47.034;7.376;2023-04-19T08:21:19;11.50;99.90
56374;DHT22;58212;47.034;7.376;2023-04-19T08:23:46;11.60;99.90
56374;DHT22;58212;47.034;7.376;2023-04-19T08:26:13;11.50;99.90
56374;DHT22;58212;47.034;7.376;2023-04-19T08:28:46;11.40;99.90
56374;DHT22;58212;47.034;7.376;2023-04-19T08:31:42;11.60;99.90
56374;DHT22;58212;47.034;7.376;2023-04-19T08:34:10;12.00;99.90
56374;DHT22;58212;47.034;7.376;2023-04-19T08:36:37;12.10;99.90
56374;DHT22;58212;47.034;7.376;2023-04-19T08:39:04;11.70;99.90
56374;DHT22;58212;47.034;7.376;2023-04-19T08:41:31;11.60;99.90
56374;DHT22;58212;47.034;7.376;2023-04-19T08:44:02;11.40;99.90
56374;DHT22;58212;47.034;7.376;2023-04-19T08:46:31;11.90;99.90
56374;DHT22;58212;47.034;7.376;2023-04-19T08:48:59;12.00;99.90
56374;DHT22;58212;47.034;7.376;2023-04-19T08:51:27;12.00;99.90
56374;DHT22;58212;47.034;7.376;2023-04-19T08:53:55;11.80;99.90
56374;DHT22;58212;47.034;7.376;2023-04-19T08:56:48;12.30;99.90
56374;DHT22;58212;47.034;7.376;2023-04-19T08:59:17;12.60;99.90
56374;DHT22;58212;47.034;7.376;2023-04-19T09:01:44;12.80;99.90
56374;DHT22;58212;47.034;7.376;2023-04-19T09:04:14;12.60;99.90
56374;DHT22;58212;47.034;7.376;2023-04-19T09:06:41;12.70;99.90
56374;DHT22;58212;47.034;7.376;2023-04-19T09:09:15;12.70;99.90
56374;DHT22;58212;47.034;7.376;2023-04-19T09:11:42;12.60;99.90
56374;DHT22;58212;47.034;7.376;2023-04-19T09:14:10;12.60;99.90
56374;DHT22;58212;47.034;7.376;2023-04-19T09:16:39;12.50;99.90
56374;DHT22;58212;47.034;7.376;2023-04-19T09:19:06;12.80;99.90
56374;DHT22;58212;47.034;7.376;2023-04-19T09:21:34;12.70;99.90
56374;DHT22;58212;47.034;7.376;2023-04-19T09:24:02;12.80;99.90
56374;DHT22;58212;47.034;7.376;2023-04-19T09:26:29;13.00;99.90
56374;DHT22;58212;47.034;7.376;2023-04-19T09:28:59;12.30;99.90
56374;DHT22;58212;47.034;7.376;2023-04-19T09:31:27;12.50;99.90
56374;DHT22;58212;47.034;7.376;2023-04-19T09:33:56;12.60;99.90
56374;DHT22;58212;47.034;7.376;2023-04-19T09:36:27;12.60;99.90
56374;DHT22;58212;47.034;7.376;2023-04-19T09:38:55;12.80;99.90
56374;DHT22;58212;47.034;7.376;2023-04-19T09:41:24;13.30;99.90
56374;DHT22;58212;47.034;7.376;2023-04-19T09:43:52;13.40;99.90
56374;DHT22;58212;47.034;7.376;2023-04-19T09:46:37;13.50;99.90
56374;DHT22;58212;47.034;7.376;2023-04-19T09:49:19;13.80;99.90
56374;DHT22;58212;47.034;7.376;2023-04-19T09:51:49;13.60;99.90
56374;DHT22;58212;47.034;7.376;2023-04-19T09:54:18;13.50;99.90
56374;DHT22;58212;47.034;7.376;2023-04-19T09:56:46;13.20;99.90
56374;DHT22;58212;47.034;7.376;2023-04-19T09:59:13;13.30;99.90
56374;DHT22;58212;47.034;7.376;2023-04-19T10:01:43;13.20;99.90
56374;DHT22;58212;47.034;7.376;2023-04-19T10:04:12;13.30;99.90
56374;DHT22;58212;47.034;7.376;2023-04-19T10:06:48;13.30;99.90
56374;DHT22;58212;47.034;7.376;2023-04-19T10:09:17;13.00;99.90
56374;DHT22;58212;47.034;7.376;2023-04-19T10:11:48;12.90;99.90
56374;DHT22;58212;47.034;7.376;2023-04-19T10:14:16;13.30;99.90
56374;DHT22;58212;47.034;7.376;2023-04-19T10:16:45;13.40;99.90
56374;DHT22;58212;47.034;7.376;2023-04-19T10:19:14;13.10;99.90
56374;DHT22;58212;47.034;7.376;2023-04-19T10:21:42;13.20;99.90
56374;DHT22;58212;47.034;7.376;2023-04-19T10:24:13;13.20;99.90
56374;DHT22;58212;47.034;7.376;2023-04-19T10:27:05;13.50;99.90
56374;DHT22;58212;47.034;7.376;2023-04-19T10:29:58;13.70;99.90
56374;DHT22;58212;47.034;7.376;2023-04-19T10:32:29;13.60;99.90
56374;DHT22;58212;47.034;7.376;2023-04-19T10:35:07;13.60;99.90
56374;DHT22;58212;47.034;7.376;2023-04-19T10:37:34;13.70;99.90
56374;DHT22;58212;47.034;7.376;2023-04-19T10:40:08;13.80;99.90
56374;DHT22;58212;47.034;7.376;2023-04-19T10:43:14;14.00;99.90
56374;DHT22;58212;47.034;7.376;2023-04-19T10:45:42;13.80;99.90
56374;DHT22;58212;47.034;7.376;2023-04-19T10:48:31;13.40;99.90
56374;DHT22;58212;47.034;7.376;2023-04-19T10:50:59;13.70;99.90
56374;DHT22;58212;47.034;7.376;2023-04-19T10:53:52;13.90;99.90
56374;DHT22;58212;47.034;7.376;2023-04-19T10:59:14;13.60;99.90
56374;DHT22;58212;47.034;7.376;2023-04-19T11:01:52;14.20;99.90
56374;DHT22;58212;47.034;7.376;2023-04-19T11:04:21;13.90;99.90
56374;DHT22;58212;47.034;7.376;2023-04-19T11:07:12;14.00;99.90
56374;DHT22;58212;47.034;7.376;2023-04-19T11:10:04;14.20;99.90
56374;DHT22;58212;47.034;7.376;2023-04-19T11:12:34;14.10;99.90
56374;DHT22;58212;47.034;7.376;2023-04-19T11:15:01;13.90;99.90
56374;DHT22;58212;47.034;7.376;2023-04-19T11:17:30;14.00;99.90
56374;DHT22;58212;47.034;7.376;2023-04-19T11:19:58;13.60;99.90
56374;DHT22;58212;47.034;7.376;2023-04-19T11:22:30;13.50;99.90
56374;DHT22;58212;47.034;7.376;2023-04-19T11:25:04;13.60;99.90
56374;DHT22;58212;47.034;7.376;2023-04-19T11:27:34;14.10;99.90
56374;DHT22;58212;47.034;7.376;2023-04-19T11:30:03;13.90;99.90
56374;DHT22;58212;47.034;7.376;2023-04-19T11:32:31;13.80;99.90
56374;DHT22;58212;47.034;7.376;2023-04-19T11:35:04;14.30;99.90
56374;DHT22;58212;47.034;7.376;2023-04-19T11:37:32;14.40;99.90
56374;DHT22;58212;47.034;7.376;2023-04-19T11:40:00;14.00;99.90
56374;DHT22;58212;47.034;7.376;2023-04-19T11:42:27;14.20;99.90
56374;DHT22;58212;47.034;7.376;2023-04-19T11:44:58;14.00;99.90
56374;DHT22;58212;47.034;7.376;2023-04-19T11:47:25;14.50;99.90
56374;DHT22;58212;47.034;7.376;2023-04-19T11:49:53;14.40;99.90
56374;DHT22;58212;47.034;7.376;2023-04-19T11:52:22;14.30;99.90
56374;DHT22;58212;47.034;7.376;2023-04-19T11:54:50;14.60;99.90
56374;DHT22;58212;47.034;7.376;2023-04-19T11:57:26;14.50;99.90
56374;DHT22;58212;47.034;7.376;2023-04-19T12:00:06;14.20;99.90
56374;DHT22;58212;47.034;7.376;2023-04-19T12:02:41;14.50;99.90
56374;DHT22;58212;47.034;7.376;2023-04-19T12:05:09;15.10;99.90
56374;DHT22;58212;47.034;7.376;2023-04-19T12:10:22;15.00;99.90
56374;DHT22;58212;47.034;7.376;2023-04-19T12:12:49;15.20;99.90
56374;DHT22;58212;47.034;7.376;2023-04-19T12:15:19;14.70;99.90
56374;DHT22;58212;47.034;7.376;2023-04-19T12:17:56;14.60;99.90
56374;DHT22;58212;47.034;7.376;2023-04-19T12:20:30;14.50;99.90
56374;DHT22;58212;47.034;7.376;2023-04-19T12:23:02;15.00;99.90
56374;DHT22;58212;47.034;7.376;2023-04-19T12:25:30;15.00;99.90
56374;DHT22;58212;47.034;7.376;2023-04-19T12:27:59;15.30;99.90
56374;DHT22;58212;47.034;7.376;2023-04-19T12:30:27;15.40;99.90
56374;DHT22;58212;47.034;7.376;2023-04-19T12:32:55;15.60;99.90
56374;DHT22;58212;47.034;7.376;2023-04-19T12:35:22;15.50;99.90
56374;DHT22;58212;47.034;7.376;2023-04-19T12:37:52;15.80;99.90
56374;DHT22;58212;47.034;7.376;2023-04-19T12:40:19;15.70;99.90
56374;DHT22;58212;47.034;7.376;2023-04-19T12:42:46;15.20;99.90
56374;DHT22;58212;47.034;7.376;2023-04-19T12:45:13;15.30;99.90
56374;DHT22;58212;47.034;7.376;2023-04-19T12:47:43;15.90;99.90
56374;DHT22;58212;47.034;7.376;2023-04-19T12:50:13;16.10;99.90
56374;DHT22;58212;47.034;7.376;2023-04-19T12:59:18;16.20;99.90
56374;DHT22;58212;47.034;7.376;2023-04-19T13:01:46;16.00;99.90
56374;DHT22;58212;47.034;7.376;2023-04-19T13:04:15;15.80;99.90
56374;DHT22;58212;47.034;7.376;2023-04-19T13:06:42;15.50;99.90
56374;DHT22;58212;47.034;7.376;2023-04-19T13:09:09;15.60;99.90
56374;DHT22;58212;47.034;7.376;2023-04-19T13:11:36;15.60;99.90
56374;DHT22;58212;47.034;7.376;2023-04-19T13:14:04;15.50;99.90
56374;DHT22;58212;47.034;7.376;2023-04-19T13:16:33;15.40;99.90
56374;DHT22;58212;47.034;7.376;2023-04-19T13:19:01;15.40;99.90
56374;DHT22;58212;47.034;7.376;2023-04-19T13:21:29;15.70;99.90
56374;DHT22;58212;47.034;7.376;2023-04-19T13:23:57;16.00;99.90
56374;DHT22;58212;47.034;7.376;2023-04-19T13:26:24;16.00;99.90
56374;DHT22;58212;47.034;7.376;2023-04-19T13:28:52;15.80;99.90
56374;DHT22;58212;47.034;7.376;2023-04-19T13:31:19;15.20;99.90
56374;DHT22;58212;47.034;7.376;2023-04-19T13:33:46;15.50;99.90
56374;DHT22;58212;47.034;7.376;2023-04-19T13:36:14;15.60;99.90
56374;DHT22;58212;47.034;7.376;2023-04-19T13:38:42;15.70;99.90
56374;DHT22;58212;47.034;7.376;2023-04-19T13:41:10;15.20;99.90
56374;DHT22;58212;47.034;7.376;2023-04-19T13:43:37;15.20;99.90
56374;DHT22;58212;47.034;7.376;2023-04-19T13:46:05;15.70;99.90
56374;DHT22;58212;47.034;7.376;2023-04-19T13:48:32;15.80;99.90
56374;DHT22;58212;47.034;7.376;2023-04-19T13:51:00;15.40;99.90
56374;DHT22;58212;47.034;7.376;2023-04-19T13:53:27;15.30;99.90
56374;DHT22;58212;47.034;7.376;2023-04-19T13:55:57;15.00;99.90
56374;DHT22;58212;47.034;7.376;2023-04-19T13:58:24;15.20;99.90
56374;DHT22;58212;47.034;7.376;2023-04-19T14:00:52;14.70;99.90
56374;DHT22;58212;47.034;7.376;2023-04-19T14:03:21;15.40;99.90
56374;DHT22;58212;47.034;7.376;2023-04-19T14:05:49;15.90;99.90
56374;DHT22;58212;47.034;7.376;2023-04-19T14:08:16;15.80;99.90
56374;DHT22;58212;47.034;7.376;2023-04-19T14:10:44;15.70;99.90
56374;DHT22;58212;47.034;7.376;2023-04-19T14:13:12;15.50;99.90
56374;DHT22;58212;47.034;7.376;2023-04-19T14:15:39;14.90;99.90
56374;DHT22;58212;47.034;7.376;2023-04-19T14:18:06;14.60;99.90
56374;DHT22;58212;47.034;7.376;2023-04-19T14:20:33;14.90;99.90
56374;DHT22;58212;47.034;7.376;2023-04-19T14:23:00;15.40;99.90
56374;DHT22;58212;47.034;7.376;2023-04-19T14:25:28;15.00;99.90
56374;DHT22;58212;47.034;7.376;2023-04-19T14:27:56;14.90;99.90
56374;DHT22;58212;47.034;7.376;2023-04-19T14:30:24;14.80;99.90
56374;DHT22;58212;47.034;7.376;2023-04-19T14:32:52;14.90;99.90
56374;DHT22;58212;47.034;7.376;2023-04-19T14:35:19;14.70;99.90
56374;DHT22;58212;47.034;7.376;2023-04-19T14:37:48;14.90;99.90
56374;DHT22;58212;47.034;7.376;2023-04-19T14:40:15;14.70;99.90
56374;DHT22;58212;47.034;7.376;2023-04-19T14:42:44;15.10;99.90
56374;DHT22;58212;47.034;7.376;2023-04-19T14:45:11;15.30;99.90
56374;DHT22;58212;47.034;7.376;2023-04-19T14:47:39;14.30;99.90
56374;DHT22;58212;47.034;7.376;2023-04-19T14:50:07;14.90;99.90
56374;DHT22;58212;47.034;7.376;2023-04-19T14:52:34;14.80;99.90
56374;DHT22;58212;47.034;7.376;2023-04-19T14:55:01;14.90;99.90
56374;DHT22;58212;47.034;7.376;2023-04-19T14:57:28;15.00;99.90
56374;DHT22;58212;47.034;7.376;2023-04-19T14:59:55;15.00;99.90
56374;DHT22;58212;47.034;7.376;2023-04-19T15:02:23;15.20;99.90
56374;DHT22;58212;47.034;7.376;2023-04-19T15:04:53;14.90;99.90
56374;DHT22;58212;47.034;7.376;2023-04-19T15:07:22;14.80;99.90
56374;DHT22;58212;47.034;7.376;2023-04-19T15:09:49;14.70;99.90
56374;DHT22;58212;47.034;7.376;2023-04-19T15:12:16;14.70;99.90
56374;DHT22;58212;47.034;7.376;2023-04-19T15:14:43;14.90;99.90
56374;DHT22;58212;47.034;7.376;2023-04-19T15:17:10;14.80;99.90
56374;DHT22;58212;47.034;7.376;2023-04-19T15:19:37;14.80;99.90
56374;DHT22;58212;47.034;7.376;2023-04-19T15:22:06;14.80;99.90
56374;DHT22;58212;47.034;7.376;2023-04-19T15:24:33;14.90;99.90
56374;DHT22;58212;47.034;7.376;2023-04-19T15:27:00;14.90;99.90
56374;DHT22;58212;47.034;7.376;2023-04-19T15:29:28;14.80;99.90
56374;DHT22;58212;47.034;7.376;2023-04-19T15:31:55;14.60;99.90
56374;DHT22;58212;47.034;7.376;2023-04-19T15:34:49;14.80;99.90
56374;DHT22;58212;47.034;7.376;2023-04-19T15:37:18;14.70;99.90
56374;DHT22;58212;47.034;7.376;2023-04-19T15:39:48;14.80;99.90
56374;DHT22;58212;47.034;7.376;2023-04-19T15:42:15;14.70;99.90
56374;DHT22;58212;47.034;7.376;2023-04-19T15:44:42;14.50;99.90
56374;DHT22;58212;47.034;7.376;2023-04-19T15:47:09;14.20;99.90
56374;DHT22;58212;47.034;7.376;2023-04-19T15:49:36;14.00;99.90
56374;DHT22;58212;47.034;7.376;2023-04-19T15:52:05;14.00;99.90
56374;DHT22;58212;47.034;7.376;2023-04-19T15:54:33;14.20;99.90
56374;DHT22;58212;47.034;7.376;2023-04-19T15:57:02;14.00;99.90
56374;DHT22;58212;47.034;7.376;2023-04-19T15:59:29;14.00;99.90
56374;DHT22;58212;47.034;7.376;2023-04-19T16:01:56;14.10;99.90
56374;DHT22;58212;47.034;7.376;2023-04-19T16:04:25;14.00;99.90
56374;DHT22;58212;47.034;7.376;2023-04-19T16:06:55;14.00;99.90
56374;DHT22;58212;47.034;7.376;2023-04-19T16:09:22;13.80;99.90